CFG6HD LIPZ-EDDF
Flight info
| Callsign | CFG6HD |
|---|---|
| Flight time | 0h 59m |
| Altitude | 30000 |
| Route | ROKIB DCT NAXAV DCT UNIMI L12 MOGTI Q163 HAFUN/N0392F240 Q163 ETASA T163 SPESA SPESA5B |
| Aircraft | A320/M-SDE3FGHIJ1LORVWXYZ/LB1 |
Departure
| Time | 2026-05-04 14:04 |
|---|---|
| Airport | Venice Marco Polo Airport (LIPZ) |
Arrival
| Time | 2026-05-04 15:04 |
|---|---|
| Airport | Frankfurt Main Airport (EDDF) |
| Time | Latitude | Longitude | Altitude | Speed | Heading |
|---|---|---|---|---|---|
| 2026-05-04 13:23 | 45.50723 | 12.34447 | 6 ft | 0 kts | 222° |
| 2026-05-04 13:55 | 45.50740 | 12.34469 | 6 ft | 2 kts | 222° |
| 2026-05-04 13:55 | 45.50751 | 12.34484 | 6 ft | 2 kts | 222° |
| 2026-05-04 13:56 | 45.50763 | 12.34498 | 6 ft | 1 kts | 222° |
| 2026-05-04 13:56 | 45.50769 | 12.34507 | 6 ft | 1 kts | 202° |
| 2026-05-04 13:56 | 45.50789 | 12.34500 | 6 ft | 1 kts | 124° |
| 2026-05-04 13:57 | 45.50791 | 12.34495 | 6 ft | 0 kts | 131° |
| 2026-05-04 13:58 | 45.50790 | 12.34497 | 6 ft | 1 kts | 131° |
| 2026-05-04 13:59 | 45.50778 | 12.34516 | 6 ft | 4 kts | 131° |
| 2026-05-04 13:59 | 45.50753 | 12.34557 | 6 ft | 7 kts | 131° |
| 2026-05-04 13:59 | 45.50666 | 12.34695 | 6 ft | 10 kts | 135° |
| 2026-05-04 14:00 | 45.50600 | 12.34730 | 7 ft | 10 kts | 194° |
| 2026-05-04 14:00 | 45.50478 | 12.34594 | 9 ft | 13 kts | 221° |
| 2026-05-04 14:00 | 45.50393 | 12.34485 | 9 ft | 18 kts | 221° |
| 2026-05-04 14:01 | 45.50284 | 12.34344 | 10 ft | 22 kts | 223° |
| 2026-05-04 14:01 | 45.50160 | 12.34185 | 12 ft | 25 kts | 221° |
| 2026-05-04 14:01 | 45.49871 | 12.33815 | 9 ft | 29 kts | 221° |
| 2026-05-04 14:02 | 45.49709 | 12.33627 | 9 ft | 30 kts | 214° |
| 2026-05-04 14:02 | 45.49586 | 12.33532 | 7 ft | 15 kts | 171° |
| 2026-05-04 14:02 | 45.49562 | 12.33545 | 7 ft | 0 kts | 146° |
| 2026-05-04 14:02 | 45.49560 | 12.33546 | 7 ft | 0 kts | 146° |
| 2026-05-04 14:03 | 45.49529 | 12.33579 | 8 ft | 9 kts | 136° |
| 2026-05-04 14:03 | 45.49469 | 12.33670 | 9 ft | 15 kts | 133° |
| 2026-05-04 14:03 | 45.49432 | 12.33782 | 9 ft | 12 kts | 64° |
| 2026-05-04 14:03 | 45.49515 | 12.33906 | 9 ft | 37 kts | 42° |
| 2026-05-04 14:04 | 45.50713 | 12.35416 | 145 ft | 169 kts | 42° |
| 2026-05-04 14:04 | 45.51560 | 12.36569 | 924 ft | 169 kts | 46° |
| 2026-05-04 14:04 | 45.52337 | 12.37689 | 1874 ft | 160 kts | 47° |
| 2026-05-04 14:05 | 45.53893 | 12.39863 | 3222 ft | 161 kts | 45° |
| 2026-05-04 14:05 | 45.54733 | 12.40988 | 3724 ft | 174 kts | 40° |
| 2026-05-04 14:05 | 45.55872 | 12.41766 | 4180 ft | 193 kts | 8° |
| 2026-05-04 14:06 | 45.57231 | 12.41419 | 4585 ft | 214 kts | 327° |
| 2026-05-04 14:06 | 45.58335 | 12.39985 | 5306 ft | 221 kts | 312° |
| 2026-05-04 14:06 | 45.59328 | 12.38338 | 6189 ft | 221 kts | 297° |
| 2026-05-04 14:06 | 45.59787 | 12.36277 | 6969 ft | 226 kts | 275° |
| 2026-05-04 14:07 | 45.59931 | 12.33994 | 7577 ft | 243 kts | 272° |
| 2026-05-04 14:07 | 45.60055 | 12.31500 | 8181 ft | 261 kts | 272° |
| 2026-05-04 14:07 | 45.60194 | 12.28826 | 8811 ft | 278 kts | 273° |
| 2026-05-04 14:07 | 45.60348 | 12.26079 | 9679 ft | 285 kts | 273° |
| 2026-05-04 14:08 | 45.60514 | 12.23265 | 10618 ft | 288 kts | 273° |
| 2026-05-04 14:08 | 45.60685 | 12.20377 | 11215 ft | 304 kts | 273° |
| 2026-05-04 14:08 | 45.60867 | 12.17282 | 11732 ft | 322 kts | 273° |
| 2026-05-04 14:08 | 45.61059 | 12.14050 | 12454 ft | 330 kts | 273° |
| 2026-05-04 14:09 | 45.61450 | 12.07494 | 14088 ft | 338 kts | 272° |
| 2026-05-04 14:09 | 45.61647 | 12.04137 | 14877 ft | 342 kts | 273° |
| 2026-05-04 14:10 | 45.62072 | 11.97350 | 16375 ft | 350 kts | 277° |
| 2026-05-04 14:10 | 45.62898 | 11.94089 | 17039 ft | 359 kts | 299° |
| 2026-05-04 14:10 | 45.64546 | 11.91410 | 17726 ft | 367 kts | 320° |
| 2026-05-04 14:10 | 45.66636 | 11.89348 | 18446 ft | 370 kts | 324° |
| 2026-05-04 14:11 | 45.68788 | 11.87312 | 19128 ft | 373 kts | 324° |
| 2026-05-04 14:11 | 45.73213 | 11.83375 | 20452 ft | 380 kts | 329° |
| 2026-05-04 14:11 | 45.75568 | 11.81649 | 21087 ft | 383 kts | 332° |
| 2026-05-04 14:12 | 45.77978 | 11.79978 | 21715 ft | 386 kts | 333° |
| 2026-05-04 14:12 | 45.80402 | 11.78314 | 22332 ft | 389 kts | 333° |
| 2026-05-04 14:12 | 45.85308 | 11.74930 | 23517 ft | 394 kts | 333° |
| 2026-05-04 14:13 | 45.87757 | 11.73236 | 24077 ft | 397 kts | 333° |
| 2026-05-04 14:13 | 45.90271 | 11.71499 | 24626 ft | 400 kts | 333° |
| 2026-05-04 14:13 | 45.92776 | 11.69766 | 25149 ft | 404 kts | 333° |
| 2026-05-04 14:13 | 45.95282 | 11.68033 | 25646 ft | 407 kts | 333° |
| 2026-05-04 14:14 | 45.97848 | 11.66255 | 26145 ft | 409 kts | 333° |
| 2026-05-04 14:14 | 46.03016 | 11.62669 | 27087 ft | 415 kts | 332° |
| 2026-05-04 14:14 | 46.05624 | 11.60853 | 27538 ft | 418 kts | 332° |
| 2026-05-04 14:15 | 46.10847 | 11.57214 | 28642 ft | 418 kts | 332° |
| 2026-05-04 14:15 | 46.16062 | 11.53570 | 29602 ft | 420 kts | 332° |
| 2026-05-04 14:16 | 46.21333 | 11.49870 | 30117 ft | 425 kts | 332° |
| 2026-05-04 14:16 | 46.23988 | 11.48006 | 30123 ft | 424 kts | 332° |
| 2026-05-04 14:17 | 46.31962 | 11.42398 | 30133 ft | 425 kts | 332° |
| 2026-05-04 14:18 | 46.39904 | 11.36801 | 30111 ft | 424 kts | 332° |
| 2026-05-04 14:19 | 46.50570 | 11.29505 | 30063 ft | 425 kts | 333° |
| 2026-05-04 14:19 | 46.55963 | 11.26043 | 30062 ft | 425 kts | 333° |
| 2026-05-04 14:20 | 46.61349 | 11.22574 | 30094 ft | 425 kts | 333° |
| 2026-05-04 14:20 | 46.66746 | 11.19086 | 30134 ft | 426 kts | 333° |
| 2026-05-04 14:21 | 46.74860 | 11.13821 | 30160 ft | 426 kts | 333° |
| 2026-05-04 14:21 | 46.80252 | 11.10313 | 30153 ft | 426 kts | 333° |
| 2026-05-04 14:22 | 46.85801 | 11.06694 | 30158 ft | 426 kts | 333° |
| 2026-05-04 14:22 | 46.91376 | 11.02973 | 30162 ft | 425 kts | 332° |
| 2026-05-04 14:23 | 46.99753 | 10.97421 | 30168 ft | 426 kts | 333° |
| 2026-05-04 14:24 | 47.05381 | 10.93755 | 30166 ft | 425 kts | 333° |
| 2026-05-04 14:24 | 47.10968 | 10.90099 | 30169 ft | 425 kts | 333° |
| 2026-05-04 14:25 | 47.16564 | 10.86427 | 30165 ft | 425 kts | 333° |
| 2026-05-04 14:25 | 47.24926 | 10.80922 | 30128 ft | 425 kts | 333° |
| 2026-05-04 14:26 | 47.30504 | 10.77240 | 30114 ft | 425 kts | 333° |
| 2026-05-04 14:26 | 47.36086 | 10.73541 | 30099 ft | 425 kts | 333° |
| 2026-05-04 14:27 | 47.41717 | 10.70017 | 30086 ft | 425 kts | 335° |
| 2026-05-04 14:27 | 47.47408 | 10.66707 | 30074 ft | 425 kts | 335° |
| 2026-05-04 14:28 | 47.53090 | 10.63396 | 30063 ft | 424 kts | 335° |
| 2026-05-04 14:28 | 47.58764 | 10.60074 | 30065 ft | 425 kts | 335° |
| 2026-05-04 14:29 | 47.70157 | 10.53380 | 30038 ft | 425 kts | 335° |
| 2026-05-04 14:30 | 47.75807 | 10.50048 | 30008 ft | 425 kts | 335° |
| 2026-05-04 14:31 | 47.84418 | 10.44953 | 30002 ft | 424 kts | 335° |
| 2026-05-04 14:32 | 47.95954 | 10.38098 | 29998 ft | 425 kts | 335° |
| 2026-05-04 14:32 | 48.01711 | 10.34665 | 29993 ft | 424 kts | 334° |
| 2026-05-04 14:33 | 48.07377 | 10.31276 | 29988 ft | 424 kts | 334° |
| 2026-05-04 14:33 | 48.13076 | 10.27859 | 29985 ft | 424 kts | 334° |
| 2026-05-04 14:34 | 48.18745 | 10.24193 | 29982 ft | 422 kts | 328° |
| 2026-05-04 14:34 | 48.23876 | 10.19461 | 29981 ft | 419 kts | 320° |
| 2026-05-04 14:35 | 48.28616 | 10.13829 | 29978 ft | 418 kts | 316° |
| 2026-05-04 14:35 | 48.31101 | 10.11199 | 29963 ft | 425 kts | 329° |
| 2026-05-04 14:35 | 48.33950 | 10.09547 | 29978 ft | 430 kts | 338° |
| 2026-05-04 14:36 | 48.39825 | 10.06852 | 29970 ft | 426 kts | 339° |
| 2026-05-04 14:36 | 48.45678 | 10.04138 | 29968 ft | 425 kts | 339° |
| 2026-05-04 14:37 | 48.51570 | 10.01342 | 29967 ft | 424 kts | 338° |
| 2026-05-04 14:37 | 48.57465 | 9.98516 | 29969 ft | 424 kts | 338° |
| 2026-05-04 14:38 | 48.63352 | 9.95679 | 29971 ft | 425 kts | 338° |
| 2026-05-04 14:38 | 48.69230 | 9.92839 | 29968 ft | 424 kts | 338° |
| 2026-05-04 14:39 | 48.75131 | 9.89980 | 29973 ft | 424 kts | 338° |
| 2026-05-04 14:39 | 48.80993 | 9.87132 | 29974 ft | 424 kts | 338° |
| 2026-05-04 14:40 | 48.86649 | 9.84386 | 28767 ft | 405 kts | 338° |
| 2026-05-04 14:40 | 48.89404 | 9.83036 | 27053 ft | 411 kts | 338° |
| 2026-05-04 14:40 | 48.92164 | 9.81679 | 25237 ft | 416 kts | 339° |
| 2026-05-04 14:40 | 48.94911 | 9.80332 | 23869 ft | 409 kts | 339° |
| 2026-05-04 14:41 | 48.97529 | 9.79052 | 22703 ft | 399 kts | 339° |
| 2026-05-04 14:41 | 49.00117 | 9.77787 | 21507 ft | 392 kts | 340° |
| 2026-05-04 14:41 | 49.05169 | 9.75310 | 19159 ft | 378 kts | 340° |
| 2026-05-04 14:42 | 49.10039 | 9.72916 | 16929 ft | 365 kts | 340° |
| 2026-05-04 14:42 | 49.12423 | 9.71740 | 15846 ft | 358 kts | 341° |
| 2026-05-04 14:42 | 49.14738 | 9.70598 | 14808 ft | 352 kts | 341° |
| 2026-05-04 14:43 | 49.17051 | 9.69456 | 13743 ft | 347 kts | 341° |
| 2026-05-04 14:43 | 49.19291 | 9.68350 | 12683 ft | 343 kts | 341° |
| 2026-05-04 14:43 | 49.21538 | 9.67242 | 11607 ft | 338 kts | 341° |
| 2026-05-04 14:43 | 49.23750 | 9.66150 | 10779 ft | 335 kts | 341° |
| 2026-05-04 14:44 | 49.25955 | 9.65059 | 10236 ft | 335 kts | 341° |
| 2026-05-04 14:44 | 49.28157 | 9.63966 | 9991 ft | 334 kts | 341° |
| 2026-05-04 14:44 | 49.30376 | 9.62864 | 9979 ft | 335 kts | 341° |
| 2026-05-04 14:44 | 49.32577 | 9.61769 | 9977 ft | 336 kts | 341° |
| 2026-05-04 14:45 | 49.34806 | 9.60661 | 9982 ft | 335 kts | 341° |
| 2026-05-04 14:45 | 49.37026 | 9.59557 | 9978 ft | 334 kts | 341° |
| 2026-05-04 14:45 | 49.39243 | 9.58452 | 9975 ft | 334 kts | 340° |
| 2026-05-04 14:45 | 49.41433 | 9.57360 | 9976 ft | 334 kts | 340° |
| 2026-05-04 14:46 | 49.43645 | 9.56254 | 9975 ft | 334 kts | 341° |
| 2026-05-04 14:46 | 49.45861 | 9.55147 | 9978 ft | 334 kts | 341° |
| 2026-05-04 14:46 | 49.48053 | 9.54050 | 9974 ft | 334 kts | 341° |
| 2026-05-04 14:46 | 49.50265 | 9.52943 | 9977 ft | 334 kts | 341° |
| 2026-05-04 14:47 | 49.52488 | 9.51830 | 9972 ft | 334 kts | 341° |
| 2026-05-04 14:47 | 49.54676 | 9.50733 | 9970 ft | 333 kts | 340° |
| 2026-05-04 14:47 | 49.56895 | 9.49619 | 9969 ft | 333 kts | 340° |
| 2026-05-04 14:47 | 49.59081 | 9.48520 | 9966 ft | 333 kts | 340° |
| 2026-05-04 14:48 | 49.61298 | 9.47405 | 9966 ft | 333 kts | 340° |
| 2026-05-04 14:48 | 49.63484 | 9.46303 | 9964 ft | 333 kts | 341° |
| 2026-05-04 14:48 | 49.65689 | 9.45192 | 9963 ft | 333 kts | 340° |
| 2026-05-04 14:48 | 49.67878 | 9.44089 | 9963 ft | 333 kts | 340° |
| 2026-05-04 14:49 | 49.70092 | 9.42971 | 9963 ft | 332 kts | 340° |
| 2026-05-04 14:49 | 49.72264 | 9.41874 | 9959 ft | 332 kts | 340° |
| 2026-05-04 14:49 | 49.74463 | 9.40761 | 9957 ft | 332 kts | 340° |
| 2026-05-04 14:49 | 49.76673 | 9.39642 | 9959 ft | 332 kts | 340° |
| 2026-05-04 14:50 | 49.78840 | 9.38543 | 9962 ft | 332 kts | 340° |
| 2026-05-04 14:50 | 49.81028 | 9.37433 | 9962 ft | 331 kts | 340° |
| 2026-05-04 14:50 | 49.83221 | 9.36319 | 9960 ft | 331 kts | 340° |
| 2026-05-04 14:50 | 49.85293 | 9.34776 | 9945 ft | 327 kts | 319° |
| 2026-05-04 14:51 | 49.86721 | 9.32127 | 9950 ft | 321 kts | 294° |
| 2026-05-04 14:51 | 49.87440 | 9.28929 | 9959 ft | 318 kts | 283° |
| 2026-05-04 14:51 | 49.88030 | 9.25668 | 9725 ft | 310 kts | 283° |
| 2026-05-04 14:51 | 49.88601 | 9.22540 | 9126 ft | 296 kts | 283° |
| 2026-05-04 14:52 | 49.89158 | 9.19539 | 8580 ft | 282 kts | 283° |
| 2026-05-04 14:52 | 49.89696 | 9.16668 | 7840 ft | 277 kts | 284° |
| 2026-05-04 14:52 | 49.90228 | 9.13843 | 7265 ft | 274 kts | 284° |
| 2026-05-04 14:52 | 49.90761 | 9.11029 | 6977 ft | 275 kts | 285° |
| 2026-05-04 14:53 | 49.91297 | 9.08200 | 6825 ft | 271 kts | 285° |
| 2026-05-04 14:53 | 49.91831 | 9.05384 | 6379 ft | 271 kts | 285° |
| 2026-05-04 14:53 | 49.92360 | 9.02593 | 5942 ft | 272 kts | 285° |
| 2026-05-04 14:53 | 49.92887 | 8.99801 | 5551 ft | 270 kts | 285° |
| 2026-05-04 14:54 | 49.93420 | 8.97021 | 5171 ft | 268 kts | 287° |
| 2026-05-04 14:54 | 49.94285 | 8.94501 | 4768 ft | 269 kts | 308° |
| 2026-05-04 14:54 | 49.95679 | 8.92585 | 4386 ft | 269 kts | 328° |
| 2026-05-04 14:54 | 49.97403 | 8.91518 | 4045 ft | 266 kts | 348° |
| 2026-05-04 14:55 | 49.99171 | 8.91351 | 3972 ft | 245 kts | 1° |
| 2026-05-04 14:55 | 50.00830 | 8.91758 | 3969 ft | 240 kts | 18° |
| 2026-05-04 14:55 | 50.02315 | 8.92929 | 3969 ft | 239 kts | 36° |
| 2026-05-04 14:55 | 50.03492 | 8.94717 | 3970 ft | 239 kts | 54° |
| 2026-05-04 14:56 | 50.04283 | 8.96968 | 3970 ft | 239 kts | 69° |
| 2026-05-04 14:56 | 50.04850 | 8.99381 | 3969 ft | 239 kts | 72° |
| 2026-05-04 14:56 | 50.05494 | 9.01778 | 3959 ft | 239 kts | 56° |
| 2026-05-04 14:56 | 50.06735 | 9.03448 | 3962 ft | 239 kts | 23° |
| 2026-05-04 14:57 | 50.08345 | 9.03864 | 3968 ft | 238 kts | 351° |
| 2026-05-04 14:57 | 50.09849 | 9.02911 | 3971 ft | 235 kts | 319° |
| 2026-05-04 14:57 | 50.10795 | 9.00892 | 3973 ft | 232 kts | 290° |
| 2026-05-04 14:57 | 50.11285 | 8.98512 | 3971 ft | 232 kts | 283° |
| 2026-05-04 14:58 | 50.11681 | 8.96096 | 3971 ft | 232 kts | 282° |
| 2026-05-04 14:58 | 50.11927 | 8.93636 | 3967 ft | 230 kts | 267° |
| 2026-05-04 14:58 | 50.11685 | 8.91196 | 3975 ft | 229 kts | 253° |
| 2026-05-04 14:58 | 50.11226 | 8.88842 | 3966 ft | 216 kts | 251° |
| 2026-05-04 14:59 | 50.10772 | 8.86768 | 3948 ft | 187 kts | 249° |
| 2026-05-04 14:59 | 50.10346 | 8.84940 | 3863 ft | 178 kts | 249° |
| 2026-05-04 14:59 | 50.09489 | 8.81388 | 3360 ft | 174 kts | 248° |
| 2026-05-04 15:00 | 50.09064 | 8.79637 | 3120 ft | 174 kts | 248° |
| 2026-05-04 15:00 | 50.08634 | 8.77869 | 2878 ft | 173 kts | 249° |
| 2026-05-04 15:00 | 50.08212 | 8.76125 | 2646 ft | 172 kts | 248° |
| 2026-05-04 15:01 | 50.07560 | 8.72586 | 2209 ft | 170 kts | 262° |
| 2026-05-04 15:01 | 50.07404 | 8.70808 | 2022 ft | 160 kts | 256° |
| 2026-05-04 15:01 | 50.07079 | 8.69213 | 1773 ft | 148 kts | 249° |
| 2026-05-04 15:01 | 50.06752 | 8.67770 | 1536 ft | 137 kts | 249° |
| 2026-05-04 15:02 | 50.06424 | 8.66422 | 1255 ft | 130 kts | 247° |
| 2026-05-04 15:02 | 50.06091 | 8.65132 | 1011 ft | 127 kts | 248° |
| 2026-05-04 15:02 | 50.05782 | 8.63872 | 840 ft | 125 kts | 249° |
| 2026-05-04 15:02 | 50.05478 | 8.62611 | 660 ft | 128 kts | 248° |
| 2026-05-04 15:03 | 50.05152 | 8.61303 | 650 ft | 127 kts | 247° |
| 2026-05-04 15:03 | 50.04839 | 8.60029 | 544 ft | 124 kts | 249° |
| 2026-05-04 15:03 | 50.04533 | 8.58779 | 416 ft | 124 kts | 248° |
| 2026-05-04 15:03 | 50.04250 | 8.57557 | 366 ft | 112 kts | 250° |
| 2026-05-04 15:04 | 50.04022 | 8.56626 | 355 ft | 68 kts | 250° |
| 2026-05-04 15:04 | 50.04014 | 8.56205 | 355 ft | 26 kts | 278° |
| 2026-05-04 15:04 | 50.04021 | 8.56160 | 355 ft | 0 kts | 285° |
| 2026-05-04 15:05 | 50.04021 | 8.56158 | 355 ft | 1 kts | 292° |
| 2026-05-04 15:05 | 50.04079 | 8.56142 | 357 ft | 12 kts | 36° |
| 2026-05-04 15:05 | 50.04122 | 8.56256 | 359 ft | 12 kts | 70° |
| 2026-05-04 15:05 | 50.04152 | 8.56384 | 360 ft | 12 kts | 70° |
| 2026-05-04 15:06 | 50.04186 | 8.56527 | 362 ft | 15 kts | 70° |
| 2026-05-04 15:06 | 50.04211 | 8.56633 | 362 ft | 6 kts | 70° |
| 2026-05-04 15:06 | 50.04215 | 8.56648 | 363 ft | 0 kts | 70° |
| 2026-05-04 15:07 | 50.04215 | 8.56649 | 363 ft | 0 kts | 70° |
| 2026-05-04 15:07 | 50.04237 | 8.56737 | 365 ft | 13 kts | 65° |
| 2026-05-04 15:08 | 50.04305 | 8.56813 | 369 ft | 12 kts | 17° |
| 2026-05-04 15:08 | 50.04390 | 8.56841 | 372 ft | 13 kts | 9° |
| 2026-05-04 15:08 | 50.04490 | 8.56868 | 374 ft | 16 kts | 13° |
| 2026-05-04 15:08 | 50.04603 | 8.56910 | 376 ft | 16 kts | 14° |
| 2026-05-04 15:09 | 50.04709 | 8.56974 | 378 ft | 16 kts | 25° |
| 2026-05-04 15:09 | 50.04803 | 8.57041 | 380 ft | 8 kts | 24° |
| 2026-05-04 15:09 | 50.04853 | 8.57075 | 381 ft | 6 kts | 25° |
| 2026-05-04 15:10 | 50.04891 | 8.57149 | 382 ft | 4 kts | 137° |
| 2026-05-04 15:10 | 50.04884 | 8.57152 | 381 ft | 1 kts | 172° |